Nearby METAR Reports

 

KOJC - Olathe/Executive, Kansas, USA
Distance from station: S 9mi, 15km
Updated: Sun, 24-Sep-2017 2:53am CDT
Clear
Clear
 Wind from SE
Wind: SE 6 mph , 9 km/h
Temperature: 72°F , 22°C
Dew Point: 68°F , 20°C
Humidity: 88%
Barometer: 29.95 inHg , 1014.2 hPa
Clouds: Clear
Visibility: 10 miles , 16 km
2017/09/24 07:53 KOJC 240753Z AUTO 14005KT 10SM CLR 22/20 A2995 RMK AO2 SLP130 T02170200
KMKC - Kansas City/Dntn, Missouri, USA
Distance from station: NE 12mi, 20km
Updated: Sun, 24-Sep-2017 2:54am CDT
Clear
Clear
 Wind from SE
Wind: SE 8 mph , 13 km/h
Temperature: 79°F , 26°C
Dew Point: 66°F , 19°C
Humidity: 65%
Barometer: 29.94 inHg , 1013.9 hPa
Clouds: Clear
Visibility: 10 miles , 16 km
2017/09/24 07:54 KMKC 240754Z 13007KT 10SM CLR 26/19 A2994 RMK AO2 SLP127 T02560194
 
KIXD - Olathe/Industria, Kansas, USA
Distance from station: SSW 14mi, 22km
Updated: Sun, 24-Sep-2017 2:53am CDT
Clear
Clear
 Wind from SE
Wind: SE 7 mph , 11 km/h
Temperature: 72°F , 22°C
Dew Point: 66°F , 19°C
Humidity: 83%
Barometer: 29.95 inHg , 1014.2 hPa
Clouds: Clear
Visibility: 10 miles , 16 km
2017/09/24 07:53 KIXD 240753Z AUTO 13006KT 10SM CLR 22/19 A2995 RMK AO2 SLP130 T02220189
KLXT - Lees Summit Muni, Missouri, USA
Distance from station: E 21mi, 33km
Updated: Sun, 24-Sep-2017 2:53am CDT
Clear
Clear
 Wind from SSE
Wind: SSE 10 mph , 17 km/h
Temperature: 75°F , 24°C
Dew Point: 66°F , 19°C
Humidity: 74%
Barometer: 29.96 inHg , 1014.6 hPa
Clouds: Clear
Visibility: 10 miles , 16 km
2017/09/24 07:53 KLXT 240753Z AUTO 15009KT 10SM CLR 24/19 A2996 RMK AO2 SLP135 T02390194
 
KMCI - Kansas City/Intl, Missouri, USA
Distance from station: N 22mi, 35km
Updated: Sun, 24-Sep-2017 2:53am CDT
Clear
Clear
 Wind from SE
Wind: SE 9 mph , 15 km/h
Temperature: 72°F , 22°C
Dew Point: 66°F , 19°C
Humidity: 83%
Barometer: 29.95 inHg , 1014.2 hPa
Clouds: Clear
Visibility: 10 miles , 16 km
2017/09/24 07:53 KMCI 240753Z 14008KT 10SM CLR 22/19 A2995 RMK AO2 SLP130 T02220194
KLWC - Lawrence, Kansas, USA
Distance from station: W 25mi, 40km
Updated: Sun, 24-Sep-2017 2:52am CDT
Clear
Clear
 Wind from E
Wind: E 7 mph , 11 km/h
Temperature: 70°F , 21°C
Dew Point: 66°F , 19°C
Humidity: 88%
Barometer: 29.93 inHg , 1013.5 hPa
Clouds: Clear
Visibility: 10 miles , 16 km
2017/09/24 07:52 KLWC 240752Z AUTO 09006KT 10SM CLR 21/19 A2993 RMK AO2 SLP127 T02110194
 
KGPH - Mosby, Missouri, USA
Distance from station: NE 34mi, 54km
Updated: Sun, 24-Sep-2017 3:35am CDT
Clear
Clear
 Wind from calm
Wind: Calm
Temperature: 64°F , 18°C
Dew Point: 64°F , 18°C
Humidity: 100%
Barometer: 29.96 inHg , 1014.6 hPa
Clouds: Clear
Visibility: 10 miles , 16 km
2017/09/24 08:35 KGPH 240835Z AUTO 00000KT 10SM CLR 18/18 A2996 RMK AO2
KTOP - Topeka, Kansas, USA
Distance from station: W 48mi, 77km
Updated: Sun, 24-Sep-2017 2:53am CDT
Clear
Clear
 Wind from calm
Wind: Calm
Temperature: 70°F , 21°C
Dew Point: 66°F , 19°C
Humidity: 88%
Barometer: 29.93 inHg , 1013.5 hPa
Clouds: Clear
Visibility: 10 miles , 16 km
2017/09/24 07:53 KTOP 240753Z 00000KT 10SM CLR 21/19 A2993 RMK AO2 SLP123 T02060194
 
KFOE - Topeka/Forbes, Kansas, USA
Distance from station: W 48mi, 78km
Updated: Sun, 24-Sep-2017 2:53am CDT
Clear
Clear
 Wind from SE
Wind: SE 6 mph , 9 km/h
Temperature: 70°F , 21°C
Dew Point: 66°F , 19°C
Humidity: 88%
Barometer: 29.93 inHg , 1013.5 hPa
Clouds: Clear
Visibility: 10 miles , 16 km
2017/09/24 07:53 KFOE 240753Z AUTO 13005KT 10SM CLR 21/19 A2993 RMK AO2 SLP124 T02110189